sensor_id;sensor_type;location;lat;lon;timestamp;temperature;humidity
11095;DHT22;5601;44.490;11.400;2022-09-16T00:00:51;23.90;99.90
11095;DHT22;5601;44.490;11.400;2022-09-16T00:03:18;23.90;99.90
11095;DHT22;5601;44.490;11.400;2022-09-16T00:05:46;23.90;99.90
11095;DHT22;5601;44.490;11.400;2022-09-16T00:08:13;23.90;99.90
11095;DHT22;5601;44.490;11.400;2022-09-16T00:10:42;23.90;99.90
11095;DHT22;5601;44.490;11.400;2022-09-16T00:13:10;23.80;99.90
11095;DHT22;5601;44.490;11.400;2022-09-16T00:15:40;23.90;99.90
11095;DHT22;5601;44.490;11.400;2022-09-16T00:18:07;23.90;99.90
11095;DHT22;5601;44.490;11.400;2022-09-16T00:20:35;23.90;99.90
11095;DHT22;5601;44.490;11.400;2022-09-16T00:23:03;23.90;99.90
11095;DHT22;5601;44.490;11.400;2022-09-16T00:25:31;23.90;99.90
11095;DHT22;5601;44.490;11.400;2022-09-16T00:28:00;23.90;99.90
11095;DHT22;5601;44.490;11.400;2022-09-16T00:30:27;24.00;99.90
11095;DHT22;5601;44.490;11.400;2022-09-16T00:32:54;24.00;99.90
11095;DHT22;5601;44.490;11.400;2022-09-16T00:35:21;24.10;99.90
11095;DHT22;5601;44.490;11.400;2022-09-16T00:37:48;24.10;99.90
11095;DHT22;5601;44.490;11.400;2022-09-16T00:40:15;24.10;99.90
11095;DHT22;5601;44.490;11.400;2022-09-16T00:42:42;24.00;99.90
11095;DHT22;5601;44.490;11.400;2022-09-16T00:45:14;23.90;99.90
11095;DHT22;5601;44.490;11.400;2022-09-16T00:47:42;23.90;99.90
11095;DHT22;5601;44.490;11.400;2022-09-16T00:50:11;23.90;99.90
11095;DHT22;5601;44.490;11.400;2022-09-16T00:52:39;23.90;99.90
11095;DHT22;5601;44.490;11.400;2022-09-16T00:55:07;23.80;99.90
11095;DHT22;5601;44.490;11.400;2022-09-16T00:57:35;23.90;99.90
11095;DHT22;5601;44.490;11.400;2022-09-16T01:00:03;23.80;99.90
11095;DHT22;5601;44.490;11.400;2022-09-16T01:02:32;23.70;99.90
11095;DHT22;5601;44.490;11.400;2022-09-16T01:05:00;23.60;99.90
11095;DHT22;5601;44.490;11.400;2022-09-16T01:07:29;23.70;99.90
11095;DHT22;5601;44.490;11.400;2022-09-16T01:09:57;23.70;99.90
11095;DHT22;5601;44.490;11.400;2022-09-16T01:12:25;23.70;99.90
11095;DHT22;5601;44.490;11.400;2022-09-16T01:14:52;23.70;99.90
11095;DHT22;5601;44.490;11.400;2022-09-16T01:17:35;23.70;99.90
11095;DHT22;5601;44.490;11.400;2022-09-16T01:20:15;23.70;99.90
11095;DHT22;5601;44.490;11.400;2022-09-16T01:22:51;23.60;99.90
11095;DHT22;5601;44.490;11.400;2022-09-16T01:25:27;23.60;99.90
11095;DHT22;5601;44.490;11.400;2022-09-16T01:28:04;23.70;99.90
11095;DHT22;5601;44.490;11.400;2022-09-16T01:30:47;23.70;99.90
11095;DHT22;5601;44.490;11.400;2022-09-16T01:33:22;23.60;99.90
11095;DHT22;5601;44.490;11.400;2022-09-16T01:38:37;23.40;99.90
11095;DHT22;5601;44.490;11.400;2022-09-16T01:41:07;23.60;99.90
11095;DHT22;5601;44.490;11.400;2022-09-16T01:43:39;23.50;99.90
11095;DHT22;5601;44.490;11.400;2022-09-16T01:46:11;23.40;99.90
11095;DHT22;5601;44.490;11.400;2022-09-16T01:48:41;23.30;99.90
11095;DHT22;5601;44.490;11.400;2022-09-16T01:51:11;23.10;99.90
11095;DHT22;5601;44.490;11.400;2022-09-16T01:53:41;23.10;99.90
11095;DHT22;5601;44.490;11.400;2022-09-16T01:56:11;23.00;99.90
11095;DHT22;5601;44.490;11.400;2022-09-16T01:58:41;23.00;99.90
11095;DHT22;5601;44.490;11.400;2022-09-16T02:01:11;23.00;99.90
11095;DHT22;5601;44.490;11.400;2022-09-16T02:03:40;23.00;99.90
11095;DHT22;5601;44.490;11.400;2022-09-16T02:06:08;22.90;99.90
11095;DHT22;5601;44.490;11.400;2022-09-16T02:08:37;22.90;99.90
11095;DHT22;5601;44.490;11.400;2022-09-16T02:11:07;22.90;99.90
11095;DHT22;5601;44.490;11.400;2022-09-16T02:13:36;22.90;99.90
11095;DHT22;5601;44.490;11.400;2022-09-16T02:16:06;22.90;99.90
11095;DHT22;5601;44.490;11.400;2022-09-16T02:18:38;23.00;99.90
11095;DHT22;5601;44.490;11.400;2022-09-16T02:21:08;23.10;99.90
11095;DHT22;5601;44.490;11.400;2022-09-16T02:23:37;23.00;99.90
11095;DHT22;5601;44.490;11.400;2022-09-16T02:26:07;22.90;99.90
11095;DHT22;5601;44.490;11.400;2022-09-16T02:28:35;22.80;99.90
11095;DHT22;5601;44.490;11.400;2022-09-16T02:31:05;22.80;99.90
11095;DHT22;5601;44.490;11.400;2022-09-16T02:33:34;22.80;99.90
11095;DHT22;5601;44.490;11.400;2022-09-16T02:36:05;22.70;99.90
11095;DHT22;5601;44.490;11.400;2022-09-16T02:38:33;22.80;99.90
11095;DHT22;5601;44.490;11.400;2022-09-16T02:41:01;22.80;99.90
11095;DHT22;5601;44.490;11.400;2022-09-16T02:43:28;22.80;99.90
11095;DHT22;5601;44.490;11.400;2022-09-16T02:45:57;22.80;99.90
11095;DHT22;5601;44.490;11.400;2022-09-16T02:48:27;22.80;99.90
11095;DHT22;5601;44.490;11.400;2022-09-16T02:50:58;22.70;99.90
11095;DHT22;5601;44.490;11.400;2022-09-16T02:53:30;22.80;99.90
11095;DHT22;5601;44.490;11.400;2022-09-16T02:56:00;22.80;99.90
11095;DHT22;5601;44.490;11.400;2022-09-16T02:58:30;22.80;99.90
11095;DHT22;5601;44.490;11.400;2022-09-16T03:00:58;22.80;99.90
11095;DHT22;5601;44.490;11.400;2022-09-16T03:03:26;22.70;99.90
11095;DHT22;5601;44.490;11.400;2022-09-16T03:06:03;22.70;99.90
11095;DHT22;5601;44.490;11.400;2022-09-16T03:08:33;22.70;99.90
11095;DHT22;5601;44.490;11.400;2022-09-16T03:11:03;22.70;99.90
11095;DHT22;5601;44.490;11.400;2022-09-16T03:13:34;22.60;99.90
11095;DHT22;5601;44.490;11.400;2022-09-16T03:16:07;22.60;99.90
11095;DHT22;5601;44.490;11.400;2022-09-16T03:18:47;22.50;99.90
11095;DHT22;5601;44.490;11.400;2022-09-16T03:21:16;22.50;99.90
11095;DHT22;5601;44.490;11.400;2022-09-16T03:23:51;22.40;99.90
11095;DHT22;5601;44.490;11.400;2022-09-16T03:26:24;22.40;99.90
11095;DHT22;5601;44.490;11.400;2022-09-16T03:28:55;22.40;99.90
11095;DHT22;5601;44.490;11.400;2022-09-16T03:31:25;22.30;99.90
11095;DHT22;5601;44.490;11.400;2022-09-16T03:33:56;22.40;99.90
11095;DHT22;5601;44.490;11.400;2022-09-16T03:36:30;22.30;99.90
11095;DHT22;5601;44.490;11.400;2022-09-16T03:39:01;22.30;99.90
11095;DHT22;5601;44.490;11.400;2022-09-16T03:41:28;22.20;99.90
11095;DHT22;5601;44.490;11.400;2022-09-16T03:43:57;22.20;99.90
11095;DHT22;5601;44.490;11.400;2022-09-16T03:46:25;22.20;99.90
11095;DHT22;5601;44.490;11.400;2022-09-16T03:48:53;22.10;99.90
11095;DHT22;5601;44.490;11.400;2022-09-16T03:51:20;22.10;99.90
11095;DHT22;5601;44.490;11.400;2022-09-16T03:53:48;22.00;99.90
11095;DHT22;5601;44.490;11.400;2022-09-16T03:56:16;22.00;99.90
11095;DHT22;5601;44.490;11.400;2022-09-16T03:58:46;21.90;99.90
11095;DHT22;5601;44.490;11.400;2022-09-16T04:01:14;21.90;99.90
11095;DHT22;5601;44.490;11.400;2022-09-16T04:03:41;21.90;99.90
11095;DHT22;5601;44.490;11.400;2022-09-16T04:06:08;21.80;99.90
11095;DHT22;5601;44.490;11.400;2022-09-16T04:08:35;21.90;99.90
11095;DHT22;5601;44.490;11.400;2022-09-16T04:11:04;21.80;99.90
11095;DHT22;5601;44.490;11.400;2022-09-16T04:13:33;21.80;99.90
11095;DHT22;5601;44.490;11.400;2022-09-16T04:16:00;21.80;99.90
11095;DHT22;5601;44.490;11.400;2022-09-16T04:18:29;21.70;99.90
11095;DHT22;5601;44.490;11.400;2022-09-16T04:20:55;21.70;99.90
11095;DHT22;5601;44.490;11.400;2022-09-16T04:23:23;21.70;99.90
11095;DHT22;5601;44.490;11.400;2022-09-16T04:25:54;21.80;99.90
11095;DHT22;5601;44.490;11.400;2022-09-16T04:28:21;21.80;99.90
11095;DHT22;5601;44.490;11.400;2022-09-16T04:30:50;21.80;99.90
11095;DHT22;5601;44.490;11.400;2022-09-16T04:33:17;21.90;99.90
11095;DHT22;5601;44.490;11.400;2022-09-16T04:35:45;21.90;99.90
11095;DHT22;5601;44.490;11.400;2022-09-16T04:38:12;21.90;99.90
11095;DHT22;5601;44.490;11.400;2022-09-16T04:40:40;21.80;99.90
11095;DHT22;5601;44.490;11.400;2022-09-16T04:43:06;21.80;99.90
11095;DHT22;5601;44.490;11.400;2022-09-16T04:45:34;21.80;99.90
11095;DHT22;5601;44.490;11.400;2022-09-16T04:48:03;21.80;99.90
11095;DHT22;5601;44.490;11.400;2022-09-16T04:50:30;21.70;99.90
11095;DHT22;5601;44.490;11.400;2022-09-16T04:52:57;21.60;99.90
11095;DHT22;5601;44.490;11.400;2022-09-16T04:55:24;21.70;99.90
11095;DHT22;5601;44.490;11.400;2022-09-16T04:57:51;21.60;99.90
11095;DHT22;5601;44.490;11.400;2022-09-16T05:00:18;21.70;99.90
11095;DHT22;5601;44.490;11.400;2022-09-16T05:02:46;21.90;99.90
11095;DHT22;5601;44.490;11.400;2022-09-16T05:05:15;22.00;99.90
11095;DHT22;5601;44.490;11.400;2022-09-16T05:07:43;22.00;99.90
11095;DHT22;5601;44.490;11.400;2022-09-16T05:10:10;22.00;99.90
11095;DHT22;5601;44.490;11.400;2022-09-16T05:12:37;22.00;99.90
11095;DHT22;5601;44.490;11.400;2022-09-16T05:15:05;21.90;99.90
11095;DHT22;5601;44.490;11.400;2022-09-16T09:57:15;28.70;99.90
11095;DHT22;5601;44.490;11.400;2022-09-16T09:59:46;28.90;99.90
11095;DHT22;5601;44.490;11.400;2022-09-16T10:02:15;28.90;99.90
11095;DHT22;5601;44.490;11.400;2022-09-16T10:04:43;28.90;99.90
11095;DHT22;5601;44.490;11.400;2022-09-16T10:07:11;28.60;99.90
11095;DHT22;5601;44.490;11.400;2022-09-16T10:09:43;28.50;99.90
11095;DHT22;5601;44.490;11.400;2022-09-16T10:12:11;28.50;99.90
11095;DHT22;5601;44.490;11.400;2022-09-16T10:14:39;28.80;99.90
11095;DHT22;5601;44.490;11.400;2022-09-16T10:17:12;28.90;99.90
11095;DHT22;5601;44.490;11.400;2022-09-16T10:19:47;28.80;99.90
11095;DHT22;5601;44.490;11.400;2022-09-16T10:22:18;28.70;99.90
11095;DHT22;5601;44.490;11.400;2022-09-16T10:24:51;28.80;99.90
11095;DHT22;5601;44.490;11.400;2022-09-16T10:27:19;28.90;99.90
11095;DHT22;5601;44.490;11.400;2022-09-16T10:29:50;29.00;99.90
11095;DHT22;5601;44.490;11.400;2022-09-16T10:32:27;28.90;99.90
11095;DHT22;5601;44.490;11.400;2022-09-16T10:34:55;28.80;99.90
11095;DHT22;5601;44.490;11.400;2022-09-16T10:37:22;28.70;99.90
11095;DHT22;5601;44.490;11.400;2022-09-16T10:39:53;28.50;99.90
11095;DHT22;5601;44.490;11.400;2022-09-16T10:42:20;28.50;99.90
11095;DHT22;5601;44.490;11.400;2022-09-16T10:44:49;28.90;99.90
11095;DHT22;5601;44.490;11.400;2022-09-16T10:47:18;29.20;99.90
11095;DHT22;5601;44.490;11.400;2022-09-16T10:49:46;29.40;99.90
11095;DHT22;5601;44.490;11.400;2022-09-16T10:52:15;29.30;99.90
11095;DHT22;5601;44.490;11.400;2022-09-16T10:54:43;29.10;99.90
11095;DHT22;5601;44.490;11.400;2022-09-16T10:57:23;28.90;99.90
11095;DHT22;5601;44.490;11.400;2022-09-16T10:59:59;29.00;99.90
11095;DHT22;5601;44.490;11.400;2022-09-16T11:02:31;29.00;99.90
11095;DHT22;5601;44.490;11.400;2022-09-16T11:05:04;29.00;99.90
11095;DHT22;5601;44.490;11.400;2022-09-16T11:07:36;28.90;99.90
11095;DHT22;5601;44.490;11.400;2022-09-16T11:10:09;28.80;99.90
11095;DHT22;5601;44.490;11.400;2022-09-16T11:12:46;28.50;99.90
11095;DHT22;5601;44.490;11.400;2022-09-16T11:15:21;28.40;99.90
11095;DHT22;5601;44.490;11.400;2022-09-16T11:17:55;28.60;99.90
11095;DHT22;5601;44.490;11.400;2022-09-16T11:23:08;28.70;99.90
11095;DHT22;5601;44.490;11.400;2022-09-16T11:25:40;28.60;99.90
11095;DHT22;5601;44.490;11.400;2022-09-16T11:28:24;28.50;99.90
11095;DHT22;5601;44.490;11.400;2022-09-16T11:30:58;28.40;99.90
11095;DHT22;5601;44.490;11.400;2022-09-16T11:33:30;28.40;99.90
11095;DHT22;5601;44.490;11.400;2022-09-16T11:36:03;28.40;99.90
11095;DHT22;5601;44.490;11.400;2022-09-16T11:38:35;28.40;99.90
11095;DHT22;5601;44.490;11.400;2022-09-16T11:41:07;28.50;99.90
11095;DHT22;5601;44.490;11.400;2022-09-16T11:43:40;28.70;99.90
11095;DHT22;5601;44.490;11.400;2022-09-16T11:46:12;29.00;99.90
11095;DHT22;5601;44.490;11.400;2022-09-16T11:48:47;29.50;99.90
11095;DHT22;5601;44.490;11.400;2022-09-16T11:51:22;29.80;99.90
11095;DHT22;5601;44.490;11.400;2022-09-16T11:53:56;29.80;99.90
11095;DHT22;5601;44.490;11.400;2022-09-16T11:56:29;29.80;99.90
11095;DHT22;5601;44.490;11.400;2022-09-16T11:58:59;29.80;99.90
11095;DHT22;5601;44.490;11.400;2022-09-16T12:01:30;29.80;99.90
11095;DHT22;5601;44.490;11.400;2022-09-16T12:03:59;29.70;99.90
11095;DHT22;5601;44.490;11.400;2022-09-16T12:06:29;29.50;99.90
11095;DHT22;5601;44.490;11.400;2022-09-16T12:09:00;29.20;99.90
11095;DHT22;5601;44.490;11.400;2022-09-16T12:11:29;29.20;99.90
11095;DHT22;5601;44.490;11.400;2022-09-16T12:14:03;29.40;99.90
11095;DHT22;5601;44.490;11.400;2022-09-16T12:16:35;29.70;99.90
11095;DHT22;5601;44.490;11.400;2022-09-16T12:19:05;29.90;99.90
11095;DHT22;5601;44.490;11.400;2022-09-16T12:21:36;29.90;99.90
11095;DHT22;5601;44.490;11.400;2022-09-16T12:24:05;29.80;99.90
11095;DHT22;5601;44.490;11.400;2022-09-16T12:26:36;29.70;99.90
11095;DHT22;5601;44.490;11.400;2022-09-16T12:29:07;29.60;99.90
11095;DHT22;5601;44.490;11.400;2022-09-16T12:31:38;29.50;99.90
11095;DHT22;5601;44.490;11.400;2022-09-16T12:34:08;29.50;99.90
11095;DHT22;5601;44.490;11.400;2022-09-16T12:36:38;29.80;99.90
11095;DHT22;5601;44.490;11.400;2022-09-16T12:39:07;30.20;99.90
11095;DHT22;5601;44.490;11.400;2022-09-16T12:41:46;30.20;99.90
11095;DHT22;5601;44.490;11.400;2022-09-16T12:44:19;30.30;99.90
11095;DHT22;5601;44.490;11.400;2022-09-16T12:47:10;30.40;99.90
11095;DHT22;5601;44.490;11.400;2022-09-16T12:52:26;30.70;99.90
11095;DHT22;5601;44.490;11.400;2022-09-16T12:57:46;30.90;99.90
11095;DHT22;5601;44.490;11.400;2022-09-16T13:00:18;31.00;99.90
11095;DHT22;5601;44.490;11.400;2022-09-16T13:02:48;31.20;99.90
11095;DHT22;5601;44.490;11.400;2022-09-16T13:05:18;31.00;99.90
11095;DHT22;5601;44.490;11.400;2022-09-16T13:07:47;31.10;99.90
11095;DHT22;5601;44.490;11.400;2022-09-16T13:10:16;31.10;99.90
11095;DHT22;5601;44.490;11.400;2022-09-16T13:12:48;31.40;99.90
11095;DHT22;5601;44.490;11.400;2022-09-16T13:15:21;31.30;99.90
11095;DHT22;5601;44.490;11.400;2022-09-16T13:17:50;31.20;99.90
11095;DHT22;5601;44.490;11.400;2022-09-16T13:20:19;31.20;99.90
11095;DHT22;5601;44.490;11.400;2022-09-16T13:22:47;31.00;99.90
11095;DHT22;5601;44.490;11.400;2022-09-16T13:25:18;31.00;99.90
11095;DHT22;5601;44.490;11.400;2022-09-16T13:27:56;31.00;99.90
11095;DHT22;5601;44.490;11.400;2022-09-16T13:30:33;31.00;99.90
11095;DHT22;5601;44.490;11.400;2022-09-16T13:35:45;31.30;99.90
11095;DHT22;5601;44.490;11.400;2022-09-16T13:38:23;31.30;99.90
11095;DHT22;5601;44.490;11.400;2022-09-16T13:40:54;31.20;99.90
11095;DHT22;5601;44.490;11.400;2022-09-16T13:43:29;31.20;99.90
11095;DHT22;5601;44.490;11.400;2022-09-16T13:46:00;31.30;99.90
11095;DHT22;5601;44.490;11.400;2022-09-16T13:48:27;31.30;99.90
11095;DHT22;5601;44.490;11.400;2022-09-16T13:51:00;31.50;99.90
11095;DHT22;5601;44.490;11.400;2022-09-16T13:53:32;31.50;99.90
11095;DHT22;5601;44.490;11.400;2022-09-16T13:56:03;31.60;99.90
11095;DHT22;5601;44.490;11.400;2022-09-16T13:58:33;31.80;99.90
11095;DHT22;5601;44.490;11.400;2022-09-16T14:01:03;31.50;99.90
11095;DHT22;5601;44.490;11.400;2022-09-16T14:03:41;31.30;99.90
11095;DHT22;5601;44.490;11.400;2022-09-16T14:08:59;31.00;99.90
11095;DHT22;5601;44.490;11.400;2022-09-16T14:11:30;31.20;99.90
11095;DHT22;5601;44.490;11.400;2022-09-16T14:14:00;31.00;99.90
11095;DHT22;5601;44.490;11.400;2022-09-16T14:16:28;30.80;99.90
11095;DHT22;5601;44.490;11.400;2022-09-16T14:18:56;30.70;99.90
11095;DHT22;5601;44.490;11.400;2022-09-16T14:21:26;30.50;99.90
11095;DHT22;5601;44.490;11.400;2022-09-16T14:23:53;30.30;99.90
11095;DHT22;5601;44.490;11.400;2022-09-16T14:26:22;30.20;99.90
11095;DHT22;5601;44.490;11.400;2022-09-16T14:28:50;30.10;99.90
11095;DHT22;5601;44.490;11.400;2022-09-16T14:31:28;30.10;99.90
11095;DHT22;5601;44.490;11.400;2022-09-16T14:33:56;29.90;99.90
11095;DHT22;5601;44.490;11.400;2022-09-16T14:36:26;30.00;99.90
11095;DHT22;5601;44.490;11.400;2022-09-16T14:38:55;29.90;99.90
11095;DHT22;5601;44.490;11.400;2022-09-16T14:41:25;30.00;99.90
11095;DHT22;5601;44.490;11.400;2022-09-16T14:43:55;30.00;99.90
11095;DHT22;5601;44.490;11.400;2022-09-16T14:46:24;29.90;99.90
11095;DHT22;5601;44.490;11.400;2022-09-16T14:48:51;29.80;99.90
11095;DHT22;5601;44.490;11.400;2022-09-16T14:51:20;29.80;99.90
11095;DHT22;5601;44.490;11.400;2022-09-16T14:53:54;29.80;99.90
11095;DHT22;5601;44.490;11.400;2022-09-16T14:56:22;29.80;99.90
11095;DHT22;5601;44.490;11.400;2022-09-16T14:58:51;29.70;99.90
11095;DHT22;5601;44.490;11.400;2022-09-16T15:01:19;29.80;99.90
11095;DHT22;5601;44.490;11.400;2022-09-16T15:03:49;29.80;99.90
11095;DHT22;5601;44.490;11.400;2022-09-16T15:06:18;29.60;99.90
11095;DHT22;5601;44.490;11.400;2022-09-16T15:08:47;29.50;99.90
11095;DHT22;5601;44.490;11.400;2022-09-16T15:11:15;29.40;99.90
11095;DHT22;5601;44.490;11.400;2022-09-16T15:13:44;29.50;99.90
11095;DHT22;5601;44.490;11.400;2022-09-16T15:16:13;29.50;99.90
11095;DHT22;5601;44.490;11.400;2022-09-16T15:18:41;29.50;99.90
11095;DHT22;5601;44.490;11.400;2022-09-16T15:21:09;29.50;99.90
11095;DHT22;5601;44.490;11.400;2022-09-16T15:23:38;29.40;99.90
11095;DHT22;5601;44.490;11.400;2022-09-16T15:26:10;29.40;99.90
11095;DHT22;5601;44.490;11.400;2022-09-16T15:28:47;29.20;99.90
11095;DHT22;5601;44.490;11.400;2022-09-16T15:31:16;29.10;99.90
11095;DHT22;5601;44.490;11.400;2022-09-16T15:33:52;29.00;99.90
11095;DHT22;5601;44.490;11.400;2022-09-16T15:36:30;28.90;99.90
11095;DHT22;5601;44.490;11.400;2022-09-16T15:38:57;28.90;99.90
11095;DHT22;5601;44.490;11.400;2022-09-16T15:41:25;28.80;99.90
11095;DHT22;5601;44.490;11.400;2022-09-16T15:43:51;28.80;99.90
11095;DHT22;5601;44.490;11.400;2022-09-16T15:46:20;28.60;99.90
11095;DHT22;5601;44.490;11.400;2022-09-16T15:48:49;28.50;99.90
11095;DHT22;5601;44.490;11.400;2022-09-16T15:51:23;28.40;99.90
11095;DHT22;5601;44.490;11.400;2022-09-16T15:53:52;28.30;99.90
11095;DHT22;5601;44.490;11.400;2022-09-16T15:56:22;28.30;99.90
11095;DHT22;5601;44.490;11.400;2022-09-16T15:58:52;28.30;99.90
11095;DHT22;5601;44.490;11.400;2022-09-16T16:01:32;28.20;99.90
11095;DHT22;5601;44.490;11.400;2022-09-16T16:04:02;28.20;99.90
11095;DHT22;5601;44.490;11.400;2022-09-16T16:06:50;28.20;99.90
11095;DHT22;5601;44.490;11.400;2022-09-16T16:12:03;28.10;99.90
11095;DHT22;5601;44.490;11.400;2022-09-16T16:14:32;28.00;99.90
11095;DHT22;5601;44.490;11.400;2022-09-16T16:17:01;27.90;99.90
11095;DHT22;5601;44.490;11.400;2022-09-16T16:19:29;27.80;99.90
11095;DHT22;5601;44.490;11.400;2022-09-16T16:21:56;27.70;99.90
11095;DHT22;5601;44.490;11.400;2022-09-16T16:24:26;27.60;99.90
11095;DHT22;5601;44.490;11.400;2022-09-16T16:26:54;27.50;99.90
11095;DHT22;5601;44.490;11.400;2022-09-16T16:29:20;27.40;99.90
11095;DHT22;5601;44.490;11.400;2022-09-16T16:31:58;27.40;99.90
11095;DHT22;5601;44.490;11.400;2022-09-16T16:34:26;27.30;99.90
11095;DHT22;5601;44.490;11.400;2022-09-16T16:36:53;27.20;99.90
11095;DHT22;5601;44.490;11.400;2022-09-16T16:39:21;27.10;99.90
11095;DHT22;5601;44.490;11.400;2022-09-16T16:41:49;27.10;99.90
11095;DHT22;5601;44.490;11.400;2022-09-16T16:44:17;27.00;99.90
11095;DHT22;5601;44.490;11.400;2022-09-16T16:46:44;27.00;99.90
11095;DHT22;5601;44.490;11.400;2022-09-16T16:49:11;26.90;99.90
11095;DHT22;5601;44.490;11.400;2022-09-16T16:51:39;26.90;99.90
11095;DHT22;5601;44.490;11.400;2022-09-16T16:54:07;26.80;99.90
11095;DHT22;5601;44.490;11.400;2022-09-16T16:56:34;26.70;99.90
11095;DHT22;5601;44.490;11.400;2022-09-16T16:59:01;26.70;99.90
11095;DHT22;5601;44.490;11.400;2022-09-16T17:01:28;26.60;99.90
11095;DHT22;5601;44.490;11.400;2022-09-16T17:03:57;26.50;99.90
11095;DHT22;5601;44.490;11.400;2022-09-16T17:06:25;26.40;99.90
11095;DHT22;5601;44.490;11.400;2022-09-16T17:08:53;26.40;99.90
11095;DHT22;5601;44.490;11.400;2022-09-16T17:11:21;26.30;99.90
11095;DHT22;5601;44.490;11.400;2022-09-16T17:13:49;26.20;99.90
11095;DHT22;5601;44.490;11.400;2022-09-16T17:16:17;26.10;99.90
11095;DHT22;5601;44.490;11.400;2022-09-16T17:18:45;26.00;99.90
11095;DHT22;5601;44.490;11.400;2022-09-16T17:21:13;25.90;99.90
11095;DHT22;5601;44.490;11.400;2022-09-16T17:23:41;25.80;99.90
11095;DHT22;5601;44.490;11.400;2022-09-16T17:26:10;25.80;99.90
11095;DHT22;5601;44.490;11.400;2022-09-16T17:28:37;25.70;99.90
11095;DHT22;5601;44.490;11.400;2022-09-16T17:31:07;25.70;99.90
11095;DHT22;5601;44.490;11.400;2022-09-16T17:33:34;25.70;99.90
11095;DHT22;5601;44.490;11.400;2022-09-16T17:36:02;25.60;99.90
11095;DHT22;5601;44.490;11.400;2022-09-16T17:38:29;25.50;99.90
11095;DHT22;5601;44.490;11.400;2022-09-16T17:41:00;25.50;99.90
11095;DHT22;5601;44.490;11.400;2022-09-16T17:43:29;25.40;99.90
11095;DHT22;5601;44.490;11.400;2022-09-16T17:45:56;25.40;99.90
11095;DHT22;5601;44.490;11.400;2022-09-16T17:48:23;25.40;99.90
11095;DHT22;5601;44.490;11.400;2022-09-16T17:50:50;25.30;99.90
11095;DHT22;5601;44.490;11.400;2022-09-16T17:53:17;25.20;99.90
11095;DHT22;5601;44.490;11.400;2022-09-16T17:55:44;25.20;99.90
11095;DHT22;5601;44.490;11.400;2022-09-16T17:58:11;25.20;99.90
11095;DHT22;5601;44.490;11.400;2022-09-16T18:00:41;25.20;99.90
11095;DHT22;5601;44.490;11.400;2022-09-16T18:03:08;25.20;99.90
11095;DHT22;5601;44.490;11.400;2022-09-16T18:05:36;25.10;99.90
11095;DHT22;5601;44.490;11.400;2022-09-16T18:08:04;25.10;99.90
11095;DHT22;5601;44.490;11.400;2022-09-16T18:10:31;25.10;99.90
11095;DHT22;5601;44.490;11.400;2022-09-16T18:12:58;25.00;99.90
11095;DHT22;5601;44.490;11.400;2022-09-16T18:15:27;25.00;99.90
11095;DHT22;5601;44.490;11.400;2022-09-16T18:17:55;25.00;99.90
11095;DHT22;5601;44.490;11.400;2022-09-16T18:20:23;24.90;99.90
11095;DHT22;5601;44.490;11.400;2022-09-16T18:22:50;24.90;99.90
11095;DHT22;5601;44.490;11.400;2022-09-16T18:25:17;24.80;99.90
11095;DHT22;5601;44.490;11.400;2022-09-16T18:27:44;24.80;99.90
11095;DHT22;5601;44.490;11.400;2022-09-16T18:30:12;24.80;99.90
11095;DHT22;5601;44.490;11.400;2022-09-16T18:35:16;24.70;99.90
11095;DHT22;5601;44.490;11.400;2022-09-16T18:37:44;24.70;99.90
11095;DHT22;5601;44.490;11.400;2022-09-16T18:40:11;24.70;99.90
11095;DHT22;5601;44.490;11.400;2022-09-16T18:42:38;24.60;99.90
11095;DHT22;5601;44.490;11.400;2022-09-16T18:45:06;24.60;99.90
11095;DHT22;5601;44.490;11.400;2022-09-16T18:47:33;24.60;99.90
11095;DHT22;5601;44.490;11.400;2022-09-16T18:50:00;24.50;99.90
11095;DHT22;5601;44.490;11.400;2022-09-16T18:52:29;24.50;99.90
11095;DHT22;5601;44.490;11.400;2022-09-16T18:54:56;24.50;99.90
11095;DHT22;5601;44.490;11.400;2022-09-16T18:57:24;24.40;99.90
11095;DHT22;5601;44.490;11.400;2022-09-16T18:59:51;24.40;99.90
11095;DHT22;5601;44.490;11.400;2022-09-16T19:02:18;24.40;99.90
11095;DHT22;5601;44.490;11.400;2022-09-16T19:04:45;24.40;99.90
11095;DHT22;5601;44.490;11.400;2022-09-16T19:07:12;24.40;99.90
11095;DHT22;5601;44.490;11.400;2022-09-16T19:09:43;24.30;99.90
11095;DHT22;5601;44.490;11.400;2022-09-16T19:12:13;24.30;99.90
11095;DHT22;5601;44.490;11.400;2022-09-16T19:14:40;24.30;99.90
11095;DHT22;5601;44.490;11.400;2022-09-16T19:17:07;24.30;99.90
11095;DHT22;5601;44.490;11.400;2022-09-16T19:19:35;24.30;99.90
11095;DHT22;5601;44.490;11.400;2022-09-16T19:22:02;24.30;99.90
11095;DHT22;5601;44.490;11.400;2022-09-16T19:24:30;24.30;99.90
11095;DHT22;5601;44.490;11.400;2022-09-16T19:26:58;24.30;99.90
11095;DHT22;5601;44.490;11.400;2022-09-16T19:29:25;24.30;99.90
11095;DHT22;5601;44.490;11.400;2022-09-16T19:31:52;24.30;99.90
11095;DHT22;5601;44.490;11.400;2022-09-16T19:34:20;24.40;99.90
11095;DHT22;5601;44.490;11.400;2022-09-16T19:36:47;24.30;99.90
11095;DHT22;5601;44.490;11.400;2022-09-16T19:39:14;24.30;99.90
11095;DHT22;5601;44.490;11.400;2022-09-16T19:41:42;24.30;99.90
11095;DHT22;5601;44.490;11.400;2022-09-16T19:44:11;24.30;99.90
11095;DHT22;5601;44.490;11.400;2022-09-16T19:46:39;24.20;99.90
11095;DHT22;5601;44.490;11.400;2022-09-16T19:49:13;24.20;99.90
11095;DHT22;5601;44.490;11.400;2022-09-16T19:51:40;24.20;99.90
11095;DHT22;5601;44.490;11.400;2022-09-16T19:54:07;24.20;99.90
11095;DHT22;5601;44.490;11.400;2022-09-16T19:56:34;24.20;99.90
11095;DHT22;5601;44.490;11.400;2022-09-16T19:59:01;24.20;99.90
11095;DHT22;5601;44.490;11.400;2022-09-16T20:01:30;24.20;99.90
11095;DHT22;5601;44.490;11.400;2022-09-16T20:03:58;24.20;99.90
11095;DHT22;5601;44.490;11.400;2022-09-16T20:06:26;24.20;99.90
11095;DHT22;5601;44.490;11.400;2022-09-16T20:08:54;24.20;99.90
11095;DHT22;5601;44.490;11.400;2022-09-16T20:11:23;24.10;99.90
11095;DHT22;5601;44.490;11.400;2022-09-16T20:13:51;24.10;99.90
11095;DHT22;5601;44.490;11.400;2022-09-16T20:16:20;24.10;99.90
11095;DHT22;5601;44.490;11.400;2022-09-16T20:18:48;24.00;99.90
11095;DHT22;5601;44.490;11.400;2022-09-16T20:21:17;24.00;99.90
11095;DHT22;5601;44.490;11.400;2022-09-16T20:23:44;24.00;99.90
11095;DHT22;5601;44.490;11.400;2022-09-16T20:26:13;23.90;99.90
11095;DHT22;5601;44.490;11.400;2022-09-16T20:28:44;23.90;99.90
11095;DHT22;5601;44.490;11.400;2022-09-16T20:31:12;23.90;99.90
11095;DHT22;5601;44.490;11.400;2022-09-16T20:33:39;23.90;99.90
11095;DHT22;5601;44.490;11.400;2022-09-16T20:36:09;23.90;99.90
11095;DHT22;5601;44.490;11.400;2022-09-16T20:38:36;23.80;99.90
11095;DHT22;5601;44.490;11.400;2022-09-16T20:41:04;23.80;99.90
11095;DHT22;5601;44.490;11.400;2022-09-16T20:43:31;23.80;99.90
11095;DHT22;5601;44.490;11.400;2022-09-16T20:46:02;23.90;99.90